sensor_id;sensor_type;location;lat;lon;timestamp;P1;durP1;ratioP1;P2;durP2;ratioP2
11139;SDS011;5624;49.388;11.350;2024-02-28T00:00:27;33.30;;;24.27;;
11139;SDS011;5624;49.388;11.350;2024-02-28T00:02:53;34.07;;;24.23;;
11139;SDS011;5624;49.388;11.350;2024-02-28T00:05:18;32.00;;;24.80;;
11139;SDS011;5624;49.388;11.350;2024-02-28T00:07:44;31.63;;;24.23;;
11139;SDS011;5624;49.388;11.350;2024-02-28T00:10:10;29.93;;;23.60;;
11139;SDS011;5624;49.388;11.350;2024-02-28T00:12:36;33.13;;;25.53;;
11139;SDS011;5624;49.388;11.350;2024-02-28T00:15:04;30.27;;;23.40;;
11139;SDS011;5624;49.388;11.350;2024-02-28T00:17:30;30.77;;;24.13;;
11139;SDS011;5624;49.388;11.350;2024-02-28T00:19:55;30.57;;;24.27;;
11139;SDS011;5624;49.388;11.350;2024-02-28T00:22:21;30.93;;;24.40;;
11139;SDS011;5624;49.388;11.350;2024-02-28T00:24:46;30.63;;;24.27;;
11139;SDS011;5624;49.388;11.350;2024-02-28T00:27:13;26.90;;;22.33;;
11139;SDS011;5624;49.388;11.350;2024-02-28T00:29:39;30.13;;;23.87;;
11139;SDS011;5624;49.388;11.350;2024-02-28T00:32:05;31.53;;;23.80;;
11139;SDS011;5624;49.388;11.350;2024-02-28T00:34:31;29.20;;;22.70;;
11139;SDS011;5624;49.388;11.350;2024-02-28T00:36:56;30.97;;;24.03;;
11139;SDS011;5624;49.388;11.350;2024-02-28T00:39:22;27.53;;;23.27;;
11139;SDS011;5624;49.388;11.350;2024-02-28T00:41:48;29.00;;;24.03;;
11139;SDS011;5624;49.388;11.350;2024-02-28T00:44:13;33.57;;;26.80;;
11139;SDS011;5624;49.388;11.350;2024-02-28T00:46:39;31.17;;;24.63;;
11139;SDS011;5624;49.388;11.350;2024-02-28T00:49:04;30.53;;;23.77;;
11139;SDS011;5624;49.388;11.350;2024-02-28T00:51:30;29.00;;;23.87;;
11139;SDS011;5624;49.388;11.350;2024-02-28T00:53:55;29.87;;;24.17;;
11139;SDS011;5624;49.388;11.350;2024-02-28T00:56:21;28.00;;;22.63;;
11139;SDS011;5624;49.388;11.350;2024-02-28T00:58:47;26.23;;;22.23;;
11139;SDS011;5624;49.388;11.350;2024-02-28T01:01:12;32.50;;;25.60;;
11139;SDS011;5624;49.388;11.350;2024-02-28T01:03:38;28.33;;;24.33;;
11139;SDS011;5624;49.388;11.350;2024-02-28T01:06:03;30.93;;;24.40;;
11139;SDS011;5624;49.388;11.350;2024-02-28T01:08:29;31.27;;;25.67;;
11139;SDS011;5624;49.388;11.350;2024-02-28T01:10:55;29.30;;;24.13;;
11139;SDS011;5624;49.388;11.350;2024-02-28T01:13:20;35.57;;;27.10;;
11139;SDS011;5624;49.388;11.350;2024-02-28T01:15:46;29.83;;;24.73;;
11139;SDS011;5624;49.388;11.350;2024-02-28T01:18:12;31.57;;;24.90;;
11139;SDS011;5624;49.388;11.350;2024-02-28T01:20:37;32.87;;;27.30;;
11139;SDS011;5624;49.388;11.350;2024-02-28T01:23:03;34.93;;;26.53;;
11139;SDS011;5624;49.388;11.350;2024-02-28T01:25:28;32.23;;;24.33;;
11139;SDS011;5624;49.388;11.350;2024-02-28T01:27:55;31.07;;;24.33;;
11139;SDS011;5624;49.388;11.350;2024-02-28T01:30:21;32.73;;;25.73;;
11139;SDS011;5624;49.388;11.350;2024-02-28T01:32:47;33.63;;;25.73;;
11139;SDS011;5624;49.388;11.350;2024-02-28T01:35:13;31.73;;;24.53;;
11139;SDS011;5624;49.388;11.350;2024-02-28T01:37:38;30.67;;;25.10;;
11139;SDS011;5624;49.388;11.350;2024-02-28T01:40:04;33.40;;;27.13;;
11139;SDS011;5624;49.388;11.350;2024-02-28T01:42:30;32.50;;;27.00;;
11139;SDS011;5624;49.388;11.350;2024-02-28T01:44:55;29.40;;;25.27;;
11139;SDS011;5624;49.388;11.350;2024-02-28T01:47:21;30.67;;;25.10;;
11139;SDS011;5624;49.388;11.350;2024-02-28T01:49:46;29.13;;;25.93;;
11139;SDS011;5624;49.388;11.350;2024-02-28T01:52:12;32.93;;;27.73;;
11139;SDS011;5624;49.388;11.350;2024-02-28T01:54:38;33.03;;;27.60;;
11139;SDS011;5624;49.388;11.350;2024-02-28T01:57:05;32.40;;;27.90;;
11139;SDS011;5624;49.388;11.350;2024-02-28T01:59:31;32.40;;;27.07;;
11139;SDS011;5624;49.388;11.350;2024-02-28T02:01:58;31.70;;;26.33;;
11139;SDS011;5624;49.388;11.350;2024-02-28T02:04:23;27.57;;;24.10;;
11139;SDS011;5624;49.388;11.350;2024-02-28T02:06:49;28.87;;;23.93;;
11139;SDS011;5624;49.388;11.350;2024-02-28T02:09:19;29.73;;;24.67;;
11139;SDS011;5624;49.388;11.350;2024-02-28T02:11:44;28.67;;;24.83;;
11139;SDS011;5624;49.388;11.350;2024-02-28T02:14:10;28.47;;;23.97;;
11139;SDS011;5624;49.388;11.350;2024-02-28T02:16:35;29.13;;;24.27;;
11139;SDS011;5624;49.388;11.350;2024-02-28T02:19:01;29.43;;;24.10;;
11139;SDS011;5624;49.388;11.350;2024-02-28T02:21:30;27.43;;;24.10;;
11139;SDS011;5624;49.388;11.350;2024-02-28T02:23:59;26.00;;;22.93;;
11139;SDS011;5624;49.388;11.350;2024-02-28T02:26:24;28.77;;;24.20;;
11139;SDS011;5624;49.388;11.350;2024-02-28T02:28:50;29.47;;;24.33;;
11139;SDS011;5624;49.388;11.350;2024-02-28T02:31:15;30.30;;;25.17;;
11139;SDS011;5624;49.388;11.350;2024-02-28T02:33:41;29.83;;;24.77;;
11139;SDS011;5624;49.388;11.350;2024-02-28T02:36:06;27.57;;;24.17;;
11139;SDS011;5624;49.388;11.350;2024-02-28T02:38:32;32.23;;;25.57;;
11139;SDS011;5624;49.388;11.350;2024-02-28T02:40:57;29.13;;;24.97;;
11139;SDS011;5624;49.388;11.350;2024-02-28T02:43:23;27.43;;;24.33;;
11139;SDS011;5624;49.388;11.350;2024-02-28T02:45:48;31.07;;;25.43;;
11139;SDS011;5624;49.388;11.350;2024-02-28T02:48:14;27.63;;;23.67;;
11139;SDS011;5624;49.388;11.350;2024-02-28T02:50:39;28.80;;;25.20;;
11139;SDS011;5624;49.388;11.350;2024-02-28T02:53:06;29.43;;;24.07;;
11139;SDS011;5624;49.388;11.350;2024-02-28T02:55:34;27.97;;;23.73;;
11139;SDS011;5624;49.388;11.350;2024-02-28T02:57:59;29.70;;;24.30;;
11139;SDS011;5624;49.388;11.350;2024-02-28T03:00:25;28.03;;;23.87;;
11139;SDS011;5624;49.388;11.350;2024-02-28T03:02:51;28.63;;;22.13;;
11139;SDS011;5624;49.388;11.350;2024-02-28T03:05:16;29.53;;;24.00;;
11139;SDS011;5624;49.388;11.350;2024-02-28T03:07:42;32.40;;;25.43;;
11139;SDS011;5624;49.388;11.350;2024-02-28T03:10:07;29.77;;;24.43;;
11139;SDS011;5624;49.388;11.350;2024-02-28T03:12:35;30.63;;;25.43;;
11139;SDS011;5624;49.388;11.350;2024-02-28T03:15:01;28.53;;;24.33;;
11139;SDS011;5624;49.388;11.350;2024-02-28T03:17:28;31.20;;;24.87;;
11139;SDS011;5624;49.388;11.350;2024-02-28T03:19:53;27.53;;;24.50;;
11139;SDS011;5624;49.388;11.350;2024-02-28T03:22:19;34.13;;;27.27;;
11139;SDS011;5624;49.388;11.350;2024-02-28T03:24:44;34.57;;;26.77;;
11139;SDS011;5624;49.388;11.350;2024-02-28T03:27:10;29.07;;;24.03;;
11139;SDS011;5624;49.388;11.350;2024-02-28T03:29:35;28.37;;;25.20;;
11139;SDS011;5624;49.388;11.350;2024-02-28T03:32:01;32.97;;;25.73;;
11139;SDS011;5624;49.388;11.350;2024-02-28T03:34:26;30.60;;;25.10;;
11139;SDS011;5624;49.388;11.350;2024-02-28T03:36:52;28.53;;;24.60;;
11139;SDS011;5624;49.388;11.350;2024-02-28T03:39:18;32.93;;;25.30;;
11139;SDS011;5624;49.388;11.350;2024-02-28T03:41:43;32.17;;;25.27;;
11139;SDS011;5624;49.388;11.350;2024-02-28T03:44:09;29.87;;;23.53;;
11139;SDS011;5624;49.388;11.350;2024-02-28T03:46:34;32.57;;;25.67;;
11139;SDS011;5624;49.388;11.350;2024-02-28T03:49:00;29.33;;;24.63;;
11139;SDS011;5624;49.388;11.350;2024-02-28T03:51:25;31.37;;;24.53;;
11139;SDS011;5624;49.388;11.350;2024-02-28T03:53:51;32.60;;;25.03;;
11139;SDS011;5624;49.388;11.350;2024-02-28T03:56:25;30.90;;;24.97;;
11139;SDS011;5624;49.388;11.350;2024-02-28T03:58:51;31.83;;;24.37;;
11139;SDS011;5624;49.388;11.350;2024-02-28T04:01:18;34.13;;;25.67;;
11139;SDS011;5624;49.388;11.350;2024-02-28T04:03:44;34.03;;;26.40;;
11139;SDS011;5624;49.388;11.350;2024-02-28T04:06:10;31.93;;;25.33;;
11139;SDS011;5624;49.388;11.350;2024-02-28T04:08:36;32.17;;;24.47;;
11139;SDS011;5624;49.388;11.350;2024-02-28T04:11:01;32.07;;;26.23;;
11139;SDS011;5624;49.388;11.350;2024-02-28T04:13:27;32.57;;;24.60;;
11139;SDS011;5624;49.388;11.350;2024-02-28T04:15:53;35.37;;;27.53;;
11139;SDS011;5624;49.388;11.350;2024-02-28T04:18:18;32.73;;;25.23;;
11139;SDS011;5624;49.388;11.350;2024-02-28T04:20:44;32.80;;;25.33;;
11139;SDS011;5624;49.388;11.350;2024-02-28T04:23:09;33.27;;;25.67;;
11139;SDS011;5624;49.388;11.350;2024-02-28T04:25:35;36.40;;;25.57;;
11139;SDS011;5624;49.388;11.350;2024-02-28T04:28:01;34.43;;;24.47;;
11139;SDS011;5624;49.388;11.350;2024-02-28T04:30:27;32.13;;;25.47;;
11139;SDS011;5624;49.388;11.350;2024-02-28T04:32:53;34.33;;;26.43;;
11139;SDS011;5624;49.388;11.350;2024-02-28T04:35:18;31.37;;;24.63;;
11139;SDS011;5624;49.388;11.350;2024-02-28T04:37:45;33.90;;;24.73;;
11139;SDS011;5624;49.388;11.350;2024-02-28T04:40:11;35.60;;;25.03;;
11139;SDS011;5624;49.388;11.350;2024-02-28T04:42:37;35.13;;;25.53;;
11139;SDS011;5624;49.388;11.350;2024-02-28T04:45:03;34.77;;;25.13;;
11139;SDS011;5624;49.388;11.350;2024-02-28T04:47:29;30.90;;;23.20;;
11139;SDS011;5624;49.388;11.350;2024-02-28T04:49:55;36.13;;;26.23;;
11139;SDS011;5624;49.388;11.350;2024-02-28T04:52:21;28.10;;;23.43;;
11139;SDS011;5624;49.388;11.350;2024-02-28T04:54:47;31.33;;;23.47;;
11139;SDS011;5624;49.388;11.350;2024-02-28T04:57:12;29.17;;;23.33;;
11139;SDS011;5624;49.388;11.350;2024-02-28T04:59:38;31.03;;;23.53;;
11139;SDS011;5624;49.388;11.350;2024-02-28T05:02:03;30.20;;;22.10;;
11139;SDS011;5624;49.388;11.350;2024-02-28T05:04:29;31.17;;;23.53;;
11139;SDS011;5624;49.388;11.350;2024-02-28T05:06:54;31.37;;;23.40;;
11139;SDS011;5624;49.388;11.350;2024-02-28T05:09:20;34.43;;;24.93;;
11139;SDS011;5624;49.388;11.350;2024-02-28T05:11:45;33.57;;;25.10;;
11139;SDS011;5624;49.388;11.350;2024-02-28T05:14:11;31.23;;;24.23;;
11139;SDS011;5624;49.388;11.350;2024-02-28T05:16:36;31.70;;;24.47;;
11139;SDS011;5624;49.388;11.350;2024-02-28T05:19:02;31.97;;;24.07;;
11139;SDS011;5624;49.388;11.350;2024-02-28T05:21:29;28.93;;;22.33;;
11139;SDS011;5624;49.388;11.350;2024-02-28T05:23:54;33.97;;;23.70;;
11139;SDS011;5624;49.388;11.350;2024-02-28T05:26:20;32.40;;;24.43;;
11139;SDS011;5624;49.388;11.350;2024-02-28T05:28:45;29.80;;;24.23;;
11139;SDS011;5624;49.388;11.350;2024-02-28T05:31:24;31.47;;;23.60;;
11139;SDS011;5624;49.388;11.350;2024-02-28T05:33:51;30.00;;;23.20;;
11139;SDS011;5624;49.388;11.350;2024-02-28T05:36:21;30.33;;;22.47;;
11139;SDS011;5624;49.388;11.350;2024-02-28T05:38:48;29.50;;;22.03;;
11139;SDS011;5624;49.388;11.350;2024-02-28T05:41:13;27.97;;;21.63;;
11139;SDS011;5624;49.388;11.350;2024-02-28T05:43:40;31.60;;;22.47;;
11139;SDS011;5624;49.388;11.350;2024-02-28T05:46:06;28.13;;;21.10;;
11139;SDS011;5624;49.388;11.350;2024-02-28T05:48:31;30.23;;;22.17;;
11139;SDS011;5624;49.388;11.350;2024-02-28T05:50:57;29.67;;;22.30;;
11139;SDS011;5624;49.388;11.350;2024-02-28T05:53:22;29.13;;;22.47;;
11139;SDS011;5624;49.388;11.350;2024-02-28T05:55:51;29.07;;;22.27;;
11139;SDS011;5624;49.388;11.350;2024-02-28T05:58:18;30.90;;;22.67;;
11139;SDS011;5624;49.388;11.350;2024-02-28T06:00:44;33.13;;;21.90;;
11139;SDS011;5624;49.388;11.350;2024-02-28T06:03:09;32.50;;;21.70;;
11139;SDS011;5624;49.388;11.350;2024-02-28T06:05:35;31.47;;;23.70;;
11139;SDS011;5624;49.388;11.350;2024-02-28T06:08:00;27.20;;;21.10;;
11139;SDS011;5624;49.388;11.350;2024-02-28T06:10:26;30.63;;;22.67;;
11139;SDS011;5624;49.388;11.350;2024-02-28T06:12:52;29.13;;;21.90;;
11139;SDS011;5624;49.388;11.350;2024-02-28T06:15:17;31.13;;;22.70;;
11139;SDS011;5624;49.388;11.350;2024-02-28T06:17:43;27.20;;;22.50;;
11139;SDS011;5624;49.388;11.350;2024-02-28T06:20:09;30.17;;;23.07;;
11139;SDS011;5624;49.388;11.350;2024-02-28T06:22:34;29.27;;;21.80;;
11139;SDS011;5624;49.388;11.350;2024-02-28T06:25:00;28.63;;;21.27;;
11139;SDS011;5624;49.388;11.350;2024-02-28T06:27:26;27.97;;;21.73;;
11139;SDS011;5624;49.388;11.350;2024-02-28T06:29:52;30.30;;;22.33;;
11139;SDS011;5624;49.388;11.350;2024-02-28T06:32:17;30.40;;;23.73;;
11139;SDS011;5624;49.388;11.350;2024-02-28T06:34:43;29.67;;;23.30;;
11139;SDS011;5624;49.388;11.350;2024-02-28T06:37:08;32.73;;;23.00;;
11139;SDS011;5624;49.388;11.350;2024-02-28T06:39:34;30.77;;;21.07;;
11139;SDS011;5624;49.388;11.350;2024-02-28T06:41:59;31.67;;;21.93;;
11139;SDS011;5624;49.388;11.350;2024-02-28T06:44:25;28.67;;;20.97;;
11139;SDS011;5624;49.388;11.350;2024-02-28T06:46:50;29.50;;;21.43;;
11139;SDS011;5624;49.388;11.350;2024-02-28T06:49:16;27.47;;;20.60;;
11139;SDS011;5624;49.388;11.350;2024-02-28T06:51:43;29.57;;;22.47;;
11139;SDS011;5624;49.388;11.350;2024-02-28T06:54:09;27.73;;;21.77;;
11139;SDS011;5624;49.388;11.350;2024-02-28T06:56:35;28.77;;;22.20;;
11139;SDS011;5624;49.388;11.350;2024-02-28T06:59:01;31.13;;;25.07;;
11139;SDS011;5624;49.388;11.350;2024-02-28T07:01:27;29.57;;;21.80;;
11139;SDS011;5624;49.388;11.350;2024-02-28T07:03:52;27.10;;;20.70;;
11139;SDS011;5624;49.388;11.350;2024-02-28T07:06:18;27.83;;;21.17;;
11139;SDS011;5624;49.388;11.350;2024-02-28T07:08:43;26.80;;;20.83;;
11139;SDS011;5624;49.388;11.350;2024-02-28T07:11:15;29.80;;;22.17;;
11139;SDS011;5624;49.388;11.350;2024-02-28T07:13:41;27.27;;;21.03;;
11139;SDS011;5624;49.388;11.350;2024-02-28T07:16:06;30.57;;;23.13;;
11139;SDS011;5624;49.388;11.350;2024-02-28T07:18:32;29.53;;;21.77;;
11139;SDS011;5624;49.388;11.350;2024-02-28T07:20:58;27.57;;;22.03;;
11139;SDS011;5624;49.388;11.350;2024-02-28T07:23:24;27.47;;;22.30;;
11139;SDS011;5624;49.388;11.350;2024-02-28T07:25:50;26.87;;;21.30;;
11139;SDS011;5624;49.388;11.350;2024-02-28T07:28:16;29.30;;;22.07;;
11139;SDS011;5624;49.388;11.350;2024-02-28T07:30:41;26.30;;;21.90;;
11139;SDS011;5624;49.388;11.350;2024-02-28T07:33:09;25.10;;;20.03;;
11139;SDS011;5624;49.388;11.350;2024-02-28T07:35:44;24.20;;;19.00;;
11139;SDS011;5624;49.388;11.350;2024-02-28T07:38:12;22.83;;;19.93;;
11139;SDS011;5624;49.388;11.350;2024-02-28T07:40:38;23.33;;;18.77;;
11139;SDS011;5624;49.388;11.350;2024-02-28T07:43:03;24.03;;;19.97;;
11139;SDS011;5624;49.388;11.350;2024-02-28T07:45:29;25.70;;;19.87;;
11139;SDS011;5624;49.388;11.350;2024-02-28T07:47:54;22.00;;;18.93;;
11139;SDS011;5624;49.388;11.350;2024-02-28T07:50:20;23.00;;;18.53;;
11139;SDS011;5624;49.388;11.350;2024-02-28T07:52:45;23.23;;;18.37;;
11139;SDS011;5624;49.388;11.350;2024-02-28T07:55:11;22.90;;;19.30;;
11139;SDS011;5624;49.388;11.350;2024-02-28T07:57:37;24.83;;;19.90;;
11139;SDS011;5624;49.388;11.350;2024-02-28T08:00:02;25.00;;;20.53;;
11139;SDS011;5624;49.388;11.350;2024-02-28T08:02:28;27.23;;;22.23;;
11139;SDS011;5624;49.388;11.350;2024-02-28T08:04:54;25.00;;;20.57;;
11139;SDS011;5624;49.388;11.350;2024-02-28T08:07:19;23.67;;;18.67;;
11139;SDS011;5624;49.388;11.350;2024-02-28T08:09:45;21.90;;;17.53;;
11139;SDS011;5624;49.388;11.350;2024-02-28T08:12:11;21.70;;;17.87;;
11139;SDS011;5624;49.388;11.350;2024-02-28T08:14:36;24.37;;;18.97;;
11139;SDS011;5624;49.388;11.350;2024-02-28T08:17:02;27.53;;;19.53;;
11139;SDS011;5624;49.388;11.350;2024-02-28T08:19:27;22.23;;;18.77;;
11139;SDS011;5624;49.388;11.350;2024-02-28T08:21:53;24.30;;;18.70;;
11139;SDS011;5624;49.388;11.350;2024-02-28T08:24:18;24.27;;;18.50;;
11139;SDS011;5624;49.388;11.350;2024-02-28T08:26:44;21.07;;;17.57;;
11139;SDS011;5624;49.388;11.350;2024-02-28T08:29:13;22.13;;;17.70;;
11139;SDS011;5624;49.388;11.350;2024-02-28T08:31:42;22.03;;;18.37;;
11139;SDS011;5624;49.388;11.350;2024-02-28T08:34:08;19.27;;;16.20;;
11139;SDS011;5624;49.388;11.350;2024-02-28T08:36:34;20.90;;;17.00;;
11139;SDS011;5624;49.388;11.350;2024-02-28T08:39:00;19.33;;;17.00;;
11139;SDS011;5624;49.388;11.350;2024-02-28T08:41:26;21.80;;;17.33;;
11139;SDS011;5624;49.388;11.350;2024-02-28T08:43:51;21.93;;;18.13;;
11139;SDS011;5624;49.388;11.350;2024-02-28T08:46:17;22.27;;;18.30;;
11139;SDS011;5624;49.388;11.350;2024-02-28T08:48:42;23.27;;;18.70;;
11139;SDS011;5624;49.388;11.350;2024-02-28T08:51:08;21.00;;;17.33;;
11139;SDS011;5624;49.388;11.350;2024-02-28T08:53:34;22.87;;;19.07;;
11139;SDS011;5624;49.388;11.350;2024-02-28T08:56:00;23.23;;;18.07;;
11139;SDS011;5624;49.388;11.350;2024-02-28T08:58:25;21.47;;;18.00;;
11139;SDS011;5624;49.388;11.350;2024-02-28T09:00:51;23.30;;;18.97;;
11139;SDS011;5624;49.388;11.350;2024-02-28T09:03:17;21.73;;;17.60;;
11139;SDS011;5624;49.388;11.350;2024-02-28T09:05:42;22.10;;;17.73;;
11139;SDS011;5624;49.388;11.350;2024-02-28T09:08:08;23.73;;;18.10;;
11139;SDS011;5624;49.388;11.350;2024-02-28T09:10:33;22.77;;;19.40;;
11139;SDS011;5624;49.388;11.350;2024-02-28T09:12:59;20.70;;;16.97;;
11139;SDS011;5624;49.388;11.350;2024-02-28T09:15:25;23.37;;;18.20;;
11139;SDS011;5624;49.388;11.350;2024-02-28T09:17:50;21.83;;;17.97;;
11139;SDS011;5624;49.388;11.350;2024-02-28T09:20:17;21.07;;;16.50;;
11139;SDS011;5624;49.388;11.350;2024-02-28T09:22:42;19.23;;;15.27;;
11139;SDS011;5624;49.388;11.350;2024-02-28T09:25:08;21.37;;;17.10;;
11139;SDS011;5624;49.388;11.350;2024-02-28T09:27:34;20.13;;;16.67;;
11139;SDS011;5624;49.388;11.350;2024-02-28T09:30:00;20.67;;;16.33;;
11139;SDS011;5624;49.388;11.350;2024-02-28T09:32:27;21.20;;;17.23;;
11139;SDS011;5624;49.388;11.350;2024-02-28T09:34:52;21.03;;;16.27;;
11139;SDS011;5624;49.388;11.350;2024-02-28T09:37:18;20.70;;;16.97;;
11139;SDS011;5624;49.388;11.350;2024-02-28T09:39:46;21.10;;;16.97;;
11139;SDS011;5624;49.388;11.350;2024-02-28T09:42:11;20.60;;;16.00;;
11139;SDS011;5624;49.388;11.350;2024-02-28T09:44:38;23.97;;;17.83;;
11139;SDS011;5624;49.388;11.350;2024-02-28T09:47:05;22.73;;;17.27;;
11139;SDS011;5624;49.388;11.350;2024-02-28T09:49:30;22.27;;;17.57;;
11139;SDS011;5624;49.388;11.350;2024-02-28T09:51:57;21.47;;;17.13;;
11139;SDS011;5624;49.388;11.350;2024-02-28T09:54:23;23.43;;;18.07;;
11139;SDS011;5624;49.388;11.350;2024-02-28T09:56:49;21.27;;;17.60;;
11139;SDS011;5624;49.388;11.350;2024-02-28T09:59:17;22.10;;;17.30;;
11139;SDS011;5624;49.388;11.350;2024-02-28T10:01:44;21.30;;;17.33;;
11139;SDS011;5624;49.388;11.350;2024-02-28T10:04:17;21.77;;;16.90;;
11139;SDS011;5624;49.388;11.350;2024-02-28T10:06:42;24.93;;;18.20;;
11139;SDS011;5624;49.388;11.350;2024-02-28T10:09:08;23.23;;;17.10;;
11139;SDS011;5624;49.388;11.350;2024-02-28T10:11:35;19.83;;;16.70;;
11139;SDS011;5624;49.388;11.350;2024-02-28T10:14:01;22.00;;;16.63;;
11139;SDS011;5624;49.388;11.350;2024-02-28T10:16:27;20.33;;;15.93;;
11139;SDS011;5624;49.388;11.350;2024-02-28T10:18:52;19.73;;;15.93;;
11139;SDS011;5624;49.388;11.350;2024-02-28T10:21:18;21.20;;;16.43;;
11139;SDS011;5624;49.388;11.350;2024-02-28T10:23:44;18.33;;;14.50;;
11139;SDS011;5624;49.388;11.350;2024-02-28T10:26:11;20.77;;;15.40;;
11139;SDS011;5624;49.388;11.350;2024-02-28T10:28:37;19.00;;;15.40;;
11139;SDS011;5624;49.388;11.350;2024-02-28T10:31:04;18.70;;;13.60;;
11139;SDS011;5624;49.388;11.350;2024-02-28T10:33:31;17.67;;;12.77;;
11139;SDS011;5624;49.388;11.350;2024-02-28T10:35:58;16.60;;;13.50;;
11139;SDS011;5624;49.388;11.350;2024-02-28T10:38:24;15.03;;;12.83;;
11139;SDS011;5624;49.388;11.350;2024-02-28T10:40:52;15.87;;;13.53;;
11139;SDS011;5624;49.388;11.350;2024-02-28T10:43:19;16.83;;;13.33;;
11139;SDS011;5624;49.388;11.350;2024-02-28T10:45:45;16.83;;;14.53;;
11139;SDS011;5624;49.388;11.350;2024-02-28T10:48:11;18.80;;;15.40;;
11139;SDS011;5624;49.388;11.350;2024-02-28T10:50:40;17.60;;;14.73;;
11139;SDS011;5624;49.388;11.350;2024-02-28T10:53:10;16.27;;;14.57;;
11139;SDS011;5624;49.388;11.350;2024-02-28T10:55:42;17.03;;;14.27;;
11139;SDS011;5624;49.388;11.350;2024-02-28T10:58:09;18.13;;;14.57;;
11139;SDS011;5624;49.388;11.350;2024-02-28T11:00:36;15.87;;;13.97;;
11139;SDS011;5624;49.388;11.350;2024-02-28T11:03:04;15.43;;;13.83;;
11139;SDS011;5624;49.388;11.350;2024-02-28T11:05:37;15.93;;;14.03;;
11139;SDS011;5624;49.388;11.350;2024-02-28T11:08:26;15.53;;;12.90;;
11139;SDS011;5624;49.388;11.350;2024-02-28T11:11:02;15.30;;;13.70;;
11139;SDS011;5624;49.388;11.350;2024-02-28T11:13:29;17.90;;;14.30;;
11139;SDS011;5624;49.388;11.350;2024-02-28T11:16:06;14.23;;;11.93;;
11139;SDS011;5624;49.388;11.350;2024-02-28T11:18:33;12.97;;;11.63;;
11139;SDS011;5624;49.388;11.350;2024-02-28T11:20:58;13.60;;;12.23;;
11139;SDS011;5624;49.388;11.350;2024-02-28T11:23:24;13.27;;;11.27;;
11139;SDS011;5624;49.388;11.350;2024-02-28T11:25:49;14.30;;;12.00;;
11139;SDS011;5624;49.388;11.350;2024-02-28T11:28:15;14.77;;;13.20;;
11139;SDS011;5624;49.388;11.350;2024-02-28T11:30:41;15.57;;;12.03;;
11139;SDS011;5624;49.388;11.350;2024-02-28T11:33:06;12.73;;;11.43;;
11139;SDS011;5624;49.388;11.350;2024-02-28T11:35:34;13.80;;;12.13;;
11139;SDS011;5624;49.388;11.350;2024-02-28T11:38:00;13.17;;;11.27;;
11139;SDS011;5624;49.388;11.350;2024-02-28T11:40:25;12.43;;;10.87;;
11139;SDS011;5624;49.388;11.350;2024-02-28T11:42:52;13.30;;;11.57;;
11139;SDS011;5624;49.388;11.350;2024-02-28T11:45:18;12.70;;;11.30;;
11139;SDS011;5624;49.388;11.350;2024-02-28T11:47:44;14.47;;;12.97;;
11139;SDS011;5624;49.388;11.350;2024-02-28T11:50:09;15.70;;;13.53;;
11139;SDS011;5624;49.388;11.350;2024-02-28T11:52:35;15.37;;;12.87;;
11139;SDS011;5624;49.388;11.350;2024-02-28T11:55:01;18.23;;;16.30;;
11139;SDS011;5624;49.388;11.350;2024-02-28T11:57:27;19.20;;;17.07;;
11139;SDS011;5624;49.388;11.350;2024-02-28T11:59:54;15.20;;;13.57;;
11139;SDS011;5624;49.388;11.350;2024-02-28T12:02:19;14.60;;;12.97;;
11139;SDS011;5624;49.388;11.350;2024-02-28T12:04:52;14.67;;;11.23;;
11139;SDS011;5624;49.388;11.350;2024-02-28T12:07:19;13.23;;;11.13;;
11139;SDS011;5624;49.388;11.350;2024-02-28T12:09:45;12.60;;;11.30;;
11139;SDS011;5624;49.388;11.350;2024-02-28T12:12:13;14.37;;;12.27;;
11139;SDS011;5624;49.388;11.350;2024-02-28T12:14:39;12.70;;;11.40;;
11139;SDS011;5624;49.388;11.350;2024-02-28T12:17:05;11.53;;;10.33;;
11139;SDS011;5624;49.388;11.350;2024-02-28T12:19:30;12.73;;;11.33;;
11139;SDS011;5624;49.388;11.350;2024-02-28T12:21:56;12.73;;;11.17;;
11139;SDS011;5624;49.388;11.350;2024-02-28T12:24:23;11.90;;;10.57;;
11139;SDS011;5624;49.388;11.350;2024-02-28T12:26:49;13.77;;;12.10;;
11139;SDS011;5624;49.388;11.350;2024-02-28T12:29:14;13.43;;;12.03;;
11139;SDS011;5624;49.388;11.350;2024-02-28T12:31:40;12.33;;;11.13;;
11139;SDS011;5624;49.388;11.350;2024-02-28T12:34:05;14.90;;;13.40;;
11139;SDS011;5624;49.388;11.350;2024-02-28T12:36:31;14.80;;;13.23;;
11139;SDS011;5624;49.388;11.350;2024-02-28T12:38:57;13.43;;;12.03;;
11139;SDS011;5624;49.388;11.350;2024-02-28T12:41:24;14.77;;;13.17;;
11139;SDS011;5624;49.388;11.350;2024-02-28T12:43:50;13.80;;;12.10;;
11139;SDS011;5624;49.388;11.350;2024-02-28T12:46:16;14.27;;;12.70;;
11139;SDS011;5624;49.388;11.350;2024-02-28T12:48:41;13.63;;;11.77;;
11139;SDS011;5624;49.388;11.350;2024-02-28T12:51:08;15.50;;;13.13;;
11139;SDS011;5624;49.388;11.350;2024-02-28T12:53:38;19.30;;;16.17;;
11139;SDS011;5624;49.388;11.350;2024-02-28T12:56:03;13.97;;;12.47;;
11139;SDS011;5624;49.388;11.350;2024-02-28T12:58:29;21.73;;;17.93;;
11139;SDS011;5624;49.388;11.350;2024-02-28T13:00:55;18.97;;;16.97;;
11139;SDS011;5624;49.388;11.350;2024-02-28T13:03:20;18.07;;;15.87;;
11139;SDS011;5624;49.388;11.350;2024-02-28T13:05:46;16.43;;;12.70;;
11139;SDS011;5624;49.388;11.350;2024-02-28T13:08:11;16.10;;;13.73;;
11139;SDS011;5624;49.388;11.350;2024-02-28T13:10:37;15.10;;;13.37;;
11139;SDS011;5624;49.388;11.350;2024-02-28T13:13:06;15.73;;;13.97;;
11139;SDS011;5624;49.388;11.350;2024-02-28T13:15:32;14.87;;;12.63;;
11139;SDS011;5624;49.388;11.350;2024-02-28T13:17:57;14.27;;;12.77;;
11139;SDS011;5624;49.388;11.350;2024-02-28T13:20:23;12.87;;;11.57;;
11139;SDS011;5624;49.388;11.350;2024-02-28T13:22:49;12.73;;;11.20;;
11139;SDS011;5624;49.388;11.350;2024-02-28T13:25:15;13.20;;;11.90;;
11139;SDS011;5624;49.388;11.350;2024-02-28T13:27:43;13.43;;;11.87;;
11139;SDS011;5624;49.388;11.350;2024-02-28T13:30:08;14.40;;;12.10;;
11139;SDS011;5624;49.388;11.350;2024-02-28T13:32:34;15.87;;;13.53;;
11139;SDS011;5624;49.388;11.350;2024-02-28T13:35:00;19.80;;;14.37;;
11139;SDS011;5624;49.388;11.350;2024-02-28T13:37:26;14.17;;;12.53;;
11139;SDS011;5624;49.388;11.350;2024-02-28T13:39:51;13.43;;;11.87;;
11139;SDS011;5624;49.388;11.350;2024-02-28T13:42:17;15.80;;;13.70;;
11139;SDS011;5624;49.388;11.350;2024-02-28T13:44:45;12.63;;;11.33;;
11139;SDS011;5624;49.388;11.350;2024-02-28T13:47:11;13.13;;;11.67;;
11139;SDS011;5624;49.388;11.350;2024-02-28T13:49:38;14.13;;;12.63;;
11139;SDS011;5624;49.388;11.350;2024-02-28T13:52:04;13.17;;;11.77;;
11139;SDS011;5624;49.388;11.350;2024-02-28T13:54:30;15.73;;;14.03;;
11139;SDS011;5624;49.388;11.350;2024-02-28T13:56:56;15.17;;;12.80;;
11139;SDS011;5624;49.388;11.350;2024-02-28T13:59:21;13.40;;;12.00;;
11139;SDS011;5624;49.388;11.350;2024-02-28T14:01:47;14.07;;;12.57;;
11139;SDS011;5624;49.388;11.350;2024-02-28T14:04:13;14.43;;;12.87;;
11139;SDS011;5624;49.388;11.350;2024-02-28T14:06:38;13.30;;;11.93;;
11139;SDS011;5624;49.388;11.350;2024-02-28T14:09:04;14.03;;;12.53;;
11139;SDS011;5624;49.388;11.350;2024-02-28T14:11:29;13.77;;;12.03;;
11139;SDS011;5624;49.388;11.350;2024-02-28T14:13:55;14.97;;;13.47;;